Time;durP1;ratioP1;P1;durP2;ratioP2;P2;SDS_P1;SDS_P2;PMS_P1;PMS_P2;Temp;Humidity;BMP_temperature;BMP_pressure;BME280_temperature;BME280_humidity;BME280_pressure;Samples;Min_cycle;Max_cycle;Signal;HPM_P1;HPM_P2
2023/11/19 00:00:14;;;;;;;1.85;1.30;;;7.90;99.90;;;;;;5022962;28;20426;-76
2023/11/19 00:02:40;;;;;;;0.95;0.95;;;7.90;99.90;;;;;;5008656;28;20041;-76
2023/11/19 00:05:09;;;;;;;2.30;2.10;;;7.90;99.90;;;;;;5006379;28;20033;-76
2023/11/19 00:07:36;;;;;;;1.88;1.55;;;7.90;99.90;;;;;;5007364;28;20060;-77
2023/11/19 00:10:06;;;;;;;5.32;2.17;;;8.00;99.90;;;;;;5061071;28;21110;-77
2023/11/19 00:12:33;;;;;;;1.13;1.10;;;8.00;99.90;;;;;;5055324;28;20040;-76
2023/11/19 00:15:01;;;;;;;1.27;0.85;;;8.00;99.90;;;;;;5053724;28;20440;-76
2023/11/19 00:17:28;;;;;;;1.67;0.93;;;8.00;99.90;;;;;;5070412;28;20044;-76
2023/11/19 00:19:54;;;;;;;1.42;1.33;;;8.00;99.90;;;;;;5068664;28;20051;-76
2023/11/19 00:22:21;;;;;;;1.65;1.45;;;8.00;99.90;;;;;;5057942;28;20040;-76
2023/11/19 00:24:48;;;;;;;0.50;0.50;;;8.00;99.90;;;;;;5068726;28;20040;-75
2023/11/19 00:27:15;;;;;;;0.35;0.35;;;8.00;99.90;;;;;;5050037;28;20037;-75
2023/11/19 00:29:44;;;;;;;1.05;0.95;;;8.00;99.90;;;;;;5034444;28;20045;-76
2023/11/19 00:32:11;;;;;;;0.20;0.20;;;8.00;99.90;;;;;;5031483;28;20040;-76
2023/11/19 00:34:37;;;;;;;3.13;1.02;;;8.00;99.90;;;;;;5079136;28;20032;-77
2023/11/19 00:37:03;;;;;;;0.90;0.90;;;8.00;99.90;;;;;;5058747;28;20037;-76
2023/11/19 00:39:30;;;;;;;0.35;0.30;;;8.00;99.90;;;;;;5050329;28;20035;-77
2023/11/19 00:41:56;;;;;;;0.60;0.60;;;8.10;99.90;;;;;;5057948;28;20032;-77
2023/11/19 00:44:22;;;;;;;0.20;0.20;;;8.10;99.90;;;;;;5044774;28;20041;-75
2023/11/19 00:46:49;;;;;;;0.30;0.30;;;8.10;99.90;;;;;;5061250;28;20045;-77
2023/11/19 00:49:15;;;;;;;0.13;0.13;;;8.10;99.90;;;;;;5034531;28;20063;-78
2023/11/19 00:51:41;;;;;;;0.10;0.10;;;8.10;99.90;;;;;;5062952;28;20045;-77
2023/11/19 00:54:07;;;;;;;1.25;0.90;;;8.10;99.90;;;;;;5044889;28;20037;-77
2023/11/19 00:56:34;;;;;;;0.85;0.85;;;8.10;99.90;;;;;;5042841;28;20040;-77
2023/11/19 00:59:00;;;;;;;0.10;0.10;;;8.20;99.90;;;;;;5061677;28;20033;-77
2023/11/19 01:01:26;;;;;;;0.50;0.35;;;8.20;99.90;;;;;;5052162;28;20047;-77
2023/11/19 01:03:52;;;;;;;0.30;0.30;;;8.20;99.90;;;;;;5050620;28;20045;-77
2023/11/19 01:06:30;;;;;;;0.45;0.45;;;8.20;99.90;;;;;;5025158;28;20487;-77
2023/11/19 01:08:56;;;;;;;0.70;0.65;;;8.20;99.90;;;;;;5024760;28;20049;-77
2023/11/19 01:11:23;;;;;;;0.20;0.20;;;8.30;99.90;;;;;;5028690;28;20033;-77
2023/11/19 01:13:50;;;;;;;0.10;0.10;;;8.20;99.90;;;;;;5014392;28;20490;-78
2023/11/19 01:16:18;;;;;;;0.10;0.10;;;8.20;99.90;;;;;;5026430;28;20045;-76
2023/11/19 01:18:46;;;;;;;0.00;0.00;;;8.30;99.90;;;;;;5027884;28;20032;-76
2023/11/19 01:21:14;;;;;;;0.28;0.28;;;8.30;99.90;;;;;;5027531;28;20073;-77
2023/11/19 01:23:44;;;;;;;0.30;0.30;;;8.20;99.90;;;;;;5010511;28;20084;-74
2023/11/19 01:26:12;;;;;;;0.20;0.20;;;8.30;99.90;;;;;;5029338;28;20043;-77
2023/11/19 01:28:39;;;;;;;0.52;0.52;;;8.30;99.90;;;;;;5028788;28;20048;-77
2023/11/19 01:31:09;;;;;;;0.28;0.28;;;8.30;99.90;;;;;;5013535;28;20041;-77
2023/11/19 01:33:36;;;;;;;0.10;0.10;;;8.30;99.90;;;;;;5029275;28;20040;-77
2023/11/19 01:36:04;;;;;;;0.10;0.10;;;8.30;99.90;;;;;;5012940;28;20041;-78
2023/11/19 01:38:32;;;;;;;0.20;0.20;;;8.30;99.90;;;;;;5070255;28;20047;-76
2023/11/19 01:40:59;;;;;;;0.35;0.25;;;8.30;99.90;;;;;;5083402;28;20036;-77
2023/11/19 01:43:36;;;;;;;0.10;0.10;;;8.40;99.90;;;;;;5091189;28;20032;-76
2023/11/19 01:46:04;;;;;;;0.10;0.10;;;8.40;99.90;;;;;;5063432;28;20036;-76
2023/11/19 01:48:34;;;;;;;0.45;0.45;;;8.40;99.90;;;;;;5063845;28;20099;-76
2023/11/19 01:51:02;;;;;;;0.20;0.20;;;8.40;99.90;;;;;;5058116;28;20162;-76
2023/11/19 01:53:29;;;;;;;0.10;0.10;;;8.30;99.90;;;;;;5066232;28;20368;-77
2023/11/19 01:55:56;;;;;;;0.20;0.20;;;8.40;99.90;;;;;;5086427;28;20035;-76
2023/11/19 01:58:24;;;;;;;0.10;0.10;;;8.40;99.90;;;;;;5054191;28;20449;-76
2023/11/19 02:00:51;;;;;;;0.30;0.30;;;8.40;99.90;;;;;;5074566;28;20047;-77
2023/11/19 02:03:17;;;;;;;0.10;0.10;;;8.40;99.90;;;;;;5057224;28;20047;-75
2023/11/19 02:06:10;;;;;;;0.17;0.17;;;8.40;99.90;;;;;;5092147;28;20032;-76
2023/11/19 02:08:38;;;;;;;0.35;0.35;;;8.50;99.90;;;;;;5072828;28;20036;-77
2023/11/19 02:11:06;;;;;;;1.95;0.20;;;8.50;99.90;;;;;;5065228;28;20040;-77
2023/11/19 02:13:33;;;;;;;0.20;0.20;;;8.50;99.90;;;;;;5053218;28;20047;-76
2023/11/19 02:16:00;;;;;;;0.10;0.10;;;8.40;99.90;;;;;;5048160;28;20040;-77
2023/11/19 02:18:27;;;;;;;0.10;0.10;;;8.40;99.90;;;;;;5085407;28;20032;-76
2023/11/19 02:20:57;;;;;;;0.25;0.25;;;8.40;99.90;;;;;;5049084;28;20047;-76
2023/11/19 02:23:28;;;;;;;0.10;0.10;;;8.50;99.90;;;;;;5055350;28;20051;-78
2023/11/19 02:26:01;;;;;;;;;;;8.50;99.90;;;;;;5049405;28;20041;-76
2023/11/19 02:28:28;;;;;;;0.10;0.10;;;8.50;99.90;;;;;;5047099;28;20213;-76
2023/11/19 02:30:54;;;;;;;0.50;0.25;;;8.50;99.90;;;;;;5053243;28;20063;-77
2023/11/19 02:33:20;;;;;;;0.10;0.10;;;8.50;99.90;;;;;;5073363;28;20035;-77
2023/11/19 02:35:47;;;;;;;0.32;0.30;;;8.50;99.90;;;;;;5064934;28;20355;-77
2023/11/19 02:38:15;;;;;;;0.98;0.57;;;8.60;99.90;;;;;;5068208;28;20037;-76
2023/11/19 02:40:41;;;;;;;0.10;0.10;;;8.60;99.90;;;;;;5061651;28;20365;-76
2023/11/19 02:43:08;;;;;;;0.10;0.10;;;8.60;99.90;;;;;;5070388;28;20377;-76
2023/11/19 02:45:35;;;;;;;0.10;0.10;;;8.60;99.90;;;;;;5068780;28;20043;-76
2023/11/19 02:48:02;;;;;;;0.35;0.35;;;8.60;99.90;;;;;;5057024;28;20456;-76
2023/11/19 02:50:29;;;;;;;0.17;0.17;;;8.60;99.90;;;;;;5069368;28;20029;-75
2023/11/19 02:52:56;;;;;;;0.05;0.05;;;8.60;99.90;;;;;;5052831;28;20048;-76
2023/11/19 02:55:23;;;;;;;0.08;0.08;;;8.70;99.90;;;;;;5068841;28;20028;-76
2023/11/19 02:57:52;;;;;;;0.38;0.25;;;8.70;99.90;;;;;;5071862;28;20457;-75
2023/11/19 03:00:27;;;;;;;3.90;1.02;;;8.70;99.90;;;;;;5063237;28;20040;-76
2023/11/19 03:02:59;;;;;;;1.00;0.55;;;8.80;99.90;;;;;;5084695;28;20036;-76
2023/11/19 03:05:30;;;;;;;0.10;0.10;;;8.80;99.90;;;;;;5062517;28;20040;-76
2023/11/19 03:07:57;;;;;;;0.10;0.10;;;8.80;99.90;;;;;;5063159;28;20040;-76
2023/11/19 03:10:23;;;;;;;0.85;0.85;;;8.80;99.90;;;;;;5085568;28;20028;-76
2023/11/19 03:12:51;;;;;;;3.15;1.85;;;8.80;99.90;;;;;;5075953;28;20044;-76
2023/11/19 03:15:17;;;;;;;0.47;0.40;;;8.80;99.90;;;;;;5068592;28;20040;-76
2023/11/19 03:17:45;;;;;;;0.13;0.13;;;8.80;99.90;;;;;;5071877;28;20058;-75
2023/11/19 03:20:15;;;;;;;0.63;0.63;;;8.90;99.90;;;;;;5065567;28;20028;-75
2023/11/19 03:22:41;;;;;;;1.48;1.38;;;8.90;99.90;;;;;;5077984;28;20044;-75
2023/11/19 03:25:08;;;;;;;2.63;2.35;;;8.90;99.90;;;;;;5069119;28;20032;-77
2023/11/19 03:27:44;;;;;;;0.85;0.55;;;8.90;99.90;;;;;;5089228;28;20567;-77
2023/11/19 03:30:10;;;;;;;2.17;2.00;;;8.90;99.90;;;;;;5069374;28;20492;-74
2023/11/19 03:32:38;;;;;;;2.85;2.65;;;9.00;99.90;;;;;;5079470;28;20037;-77
2023/11/19 03:35:09;;;;;;;4.63;4.32;;;8.90;99.90;;;;;;5061578;28;20051;-77
2023/11/19 03:37:36;;;;;;;0.57;0.57;;;9.00;99.90;;;;;;5073186;28;20035;-77
2023/11/19 03:40:02;;;;;;;1.52;1.13;;;9.00;99.90;;;;;;5087097;28;20035;-77
2023/11/19 03:42:30;;;;;;;0.93;0.93;;;9.00;99.90;;;;;;5087668;28;20034;-77
2023/11/19 03:44:56;;;;;;;1.42;1.02;;;9.00;99.90;;;;;;5060125;28;20043;-77
2023/11/19 03:47:26;;;;;;;1.23;1.10;;;9.10;99.90;;;;;;5080038;28;20047;-77
2023/11/19 03:49:52;;;;;;;1.30;1.20;;;9.10;99.90;;;;;;5070135;28;20037;-77
2023/11/19 03:52:19;;;;;;;2.17;0.90;;;9.10;99.90;;;;;;5063529;28;20044;-77
2023/11/19 03:54:45;;;;;;;0.40;0.40;;;9.10;99.90;;;;;;5086383;28;20036;-76
2023/11/19 03:57:15;;;;;;;0.45;0.45;;;9.20;99.90;;;;;;5070385;28;20032;-76
2023/11/19 03:59:42;;;;;;;0.30;0.30;;;9.10;99.90;;;;;;5067938;28;20028;-76
2023/11/19 04:02:08;;;;;;;0.15;0.15;;;9.20;99.90;;;;;;5077968;28;20855;-76
2023/11/19 04:04:34;;;;;;;0.70;0.70;;;9.20;99.90;;;;;;5081620;28;20385;-76
2023/11/19 04:07:03;;;;;;;0.10;0.10;;;9.20;99.90;;;;;;5080407;28;20029;-77
2023/11/19 04:09:29;;;;;;;0.32;0.32;;;9.20;99.90;;;;;;5072840;28;20036;-76
2023/11/19 04:11:56;;;;;;;0.20;0.20;;;9.20;99.90;;;;;;5065432;28;20043;-76
2023/11/19 04:14:23;;;;;;;0.10;0.10;;;9.30;99.90;;;;;;5029340;28;20071;-76
2023/11/19 04:16:50;;;;;;;0.10;0.10;;;9.30;99.90;;;;;;5080442;28;20028;-76
2023/11/19 04:19:18;;;;;;;0.10;0.10;;;9.30;99.90;;;;;;5067723;28;20389;-77
2023/11/19 04:21:44;;;;;;;0.22;0.22;;;9.30;99.90;;;;;;5077780;28;20484;-77
2023/11/19 04:24:14;;;;;;;0.10;0.10;;;9.30;99.90;;;;;;5048863;28;20040;-77
2023/11/19 04:26:45;;;;;;;0.10;0.10;;;9.30;99.90;;;;;;5051314;28;20381;-76
2023/11/19 04:29:12;;;;;;;0.20;0.20;;;9.40;99.90;;;;;;5047437;28;20377;-75
2023/11/19 04:31:39;;;;;;;0.10;0.10;;;9.40;99.90;;;;;;5063435;28;20025;-76
2023/11/19 04:34:09;;;;;;;0.10;0.10;;;9.50;99.90;;;;;;5050321;28;20047;-77
2023/11/19 04:36:37;;;;;;;5.18;1.13;;;9.50;99.90;;;;;;5047598;28;20029;-77
2023/11/19 04:39:15;;;;;;;0.52;0.52;;;9.50;99.90;;;;;;5054707;28;20025;-76
2023/11/19 04:41:53;;;;;;;0.50;0.50;;;9.50;99.90;;;;;;5048569;28;20024;-77
2023/11/19 04:44:20;;;;;;;0.30;0.30;;;9.60;99.90;;;;;;5065514;28;20378;-76
2023/11/19 04:46:46;;;;;;;0.40;0.40;;;9.60;99.90;;;;;;5068470;28;20032;-76
2023/11/19 04:49:14;;;;;;;0.20;0.20;;;9.60;99.90;;;;;;5063335;28;20033;-77
2023/11/19 04:51:46;;;;;;;0.10;0.10;;;9.70;99.90;;;;;;5064520;28;20564;-76
2023/11/19 04:54:13;;;;;;;0.13;0.13;;;9.70;99.90;;;;;;5066643;28;20060;-76
2023/11/19 04:56:44;;;;;;;0.10;0.10;;;9.70;99.90;;;;;;5067116;28;20025;-76
2023/11/19 04:59:10;;;;;;;0.10;0.10;;;9.80;99.90;;;;;;5055177;28;20044;-76
2023/11/19 05:01:37;;;;;;;0.10;0.10;;;9.70;99.90;;;;;;5051190;28;20041;-76
2023/11/19 05:04:03;;;;;;;0.60;0.40;;;9.70;99.90;;;;;;5065057;28;20025;-76
2023/11/19 05:06:30;;;;;;;0.13;0.13;;;9.80;99.90;;;;;;5065570;28;20029;-76
2023/11/19 05:08:57;;;;;;;0.10;0.10;;;9.90;99.90;;;;;;5054093;28;20036;-77
2023/11/19 05:11:24;;;;;;;0.20;0.20;;;9.80;99.90;;;;;;5050831;28;20025;-77
2023/11/19 05:13:50;;;;;;;1.38;0.98;;;9.90;99.90;;;;;;5056030;28;20036;-76
2023/11/19 05:16:17;;;;;;;0.10;0.10;;;9.90;99.90;;;;;;5067042;28;20036;-75
2023/11/19 05:18:44;;;;;;;0.10;0.10;;;9.90;99.90;;;;;;5049010;28;20048;-76
2023/11/19 05:21:10;;;;;;;0.40;0.38;;;9.90;99.90;;;;;;5054954;28;20047;-77
2023/11/19 05:23:36;;;;;;;0.45;0.40;;;9.90;99.90;;;;;;5083529;28;20043;-76
2023/11/19 05:26:03;;;;;;;0.45;0.45;;;10.00;99.90;;;;;;5072777;28;20035;-76
2023/11/19 05:28:29;;;;;;;1.73;1.00;;;10.00;99.90;;;;;;5064971;28;20040;-76
2023/11/19 05:30:55;;;;;;;0.90;0.82;;;10.00;99.90;;;;;;5087355;28;20035;-77
2023/11/19 05:33:22;;;;;;;0.22;0.22;;;10.00;99.90;;;;;;5086083;28;20039;-74
2023/11/19 05:35:48;;;;;;;0.25;0.25;;;10.00;99.90;;;;;;5092102;28;20373;-77
2023/11/19 05:38:14;;;;;;;0.30;0.30;;;10.00;99.90;;;;;;5092687;28;20020;-77
2023/11/19 05:40:41;;;;;;;0.30;0.30;;;10.10;99.90;;;;;;5090647;28;20362;-77
2023/11/19 05:43:08;;;;;;;0.20;0.20;;;10.10;99.90;;;;;;5087668;28;20036;-76
2023/11/19 05:45:34;;;;;;;0.55;0.55;;;10.10;99.90;;;;;;5079937;28;20039;-76
2023/11/19 05:48:00;;;;;;;0.10;0.10;;;10.20;99.90;;;;;;5078949;28;20035;-76
2023/11/19 05:50:26;;;;;;;0.10;0.10;;;10.10;99.90;;;;;;5054196;28;20051;-75
2023/11/19 05:52:53;;;;;;;0.22;0.22;;;10.20;99.90;;;;;;5092167;28;20036;-75
2023/11/19 05:55:19;;;;;;;0.13;0.13;;;10.20;99.90;;;;;;5079340;28;20028;-76
2023/11/19 05:57:46;;;;;;;0.65;0.65;;;10.20;99.90;;;;;;5089995;28;20033;-75
2023/11/19 06:00:13;;;;;;;0.20;0.20;;;10.20;99.90;;;;;;5083832;28;20025;-75
2023/11/19 06:02:39;;;;;;;0.40;0.38;;;10.20;99.90;;;;;;5068281;28;20035;-75
2023/11/19 06:05:06;;;;;;;0.30;0.30;;;10.20;99.90;;;;;;5083173;28;20139;-76
2023/11/19 06:07:33;;;;;;;0.25;0.25;;;10.20;99.90;;;;;;5086145;28;20032;-76
2023/11/19 06:09:59;;;;;;;0.20;0.20;;;10.30;99.90;;;;;;5084477;28;20029;-75
2023/11/19 06:12:27;;;;;;;0.25;0.25;;;10.30;99.90;;;;;;5083153;28;20346;-76
2023/11/19 06:14:53;;;;;;;0.10;0.10;;;10.30;99.90;;;;;;5064879;28;20040;-75
2023/11/19 06:17:19;;;;;;;0.20;0.20;;;10.30;99.90;;;;;;5083846;28;20040;-75
2023/11/19 06:19:45;;;;;;;0.82;0.82;;;10.30;99.90;;;;;;5068493;28;20036;-76
2023/11/19 06:22:12;;;;;;;1.10;0.82;;;10.30;99.90;;;;;;5080514;28;20050;-75
2023/11/19 06:24:38;;;;;;;0.20;0.20;;;10.30;99.90;;;;;;5071311;28;20044;-75
2023/11/19 06:27:04;;;;;;;0.17;0.17;;;10.30;99.90;;;;;;5056118;28;20028;-75
2023/11/19 06:29:30;;;;;;;0.35;0.35;;;10.30;99.90;;;;;;5089241;28;20031;-75
2023/11/19 06:31:57;;;;;;;0.55;0.30;;;10.30;99.90;;;;;;5087491;28;20031;-77
2023/11/19 06:34:23;;;;;;;0.20;0.20;;;10.30;99.90;;;;;;5080850;28;20035;-75
2023/11/19 06:36:49;;;;;;;0.38;0.30;;;10.30;99.90;;;;;;5058774;28;20051;-76
2023/11/19 06:39:15;;;;;;;1.33;0.47;;;10.40;99.90;;;;;;5052107;28;20037;-77
2023/11/19 06:41:46;;;;;;;0.10;0.10;;;10.40;99.90;;;;;;5069525;28;20036;-76
2023/11/19 06:44:12;;;;;;;0.10;0.10;;;10.40;99.90;;;;;;5071719;28;20055;-76
2023/11/19 06:46:39;;;;;;;0.10;0.10;;;10.40;99.90;;;;;;5081553;28;20024;-77
2023/11/19 06:49:07;;;;;;;1.55;0.63;;;10.40;99.90;;;;;;5078669;28;20035;-77
2023/11/19 06:51:34;;;;;;;0.10;0.10;;;10.50;99.90;;;;;;5089611;28;20039;-77
2023/11/19 06:54:00;;;;;;;1.10;0.55;;;10.40;99.90;;;;;;5083540;28;20142;-77
2023/11/19 06:56:27;;;;;;;0.32;0.32;;;10.50;99.90;;;;;;5055147;28;20055;-76
2023/11/19 06:58:53;;;;;;;0.28;0.28;;;10.40;99.90;;;;;;5083269;28;20036;-76
2023/11/19 07:01:19;;;;;;;1.45;0.40;;;10.30;99.90;;;;;;5085740;28;20043;-76
2023/11/19 07:03:46;;;;;;;0.10;0.10;;;10.20;99.90;;;;;;5073042;28;20040;-77
2023/11/19 07:06:15;;;;;;;0.10;0.10;;;10.20;99.90;;;;;;5075518;28;20028;-76
2023/11/19 07:08:44;;;;;;;0.35;0.30;;;10.10;99.90;;;;;;5066870;28;20028;-76
2023/11/19 07:11:11;;;;;;;0.10;0.10;;;10.20;99.90;;;;;;5068126;28;20040;-77
2023/11/19 07:13:38;;;;;;;1.02;0.65;;;10.30;99.90;;;;;;5085404;28;20350;-76
2023/11/19 07:16:05;;;;;;;0.10;0.10;;;10.40;99.90;;;;;;5068172;28;20032;-76
2023/11/19 07:18:32;;;;;;;0.38;0.32;;;10.40;99.90;;;;;;5079027;28;20024;-76
2023/11/19 07:20:59;;;;;;;0.98;0.30;;;10.40;99.90;;;;;;5064280;28;20492;-77
2023/11/19 07:23:26;;;;;;;1.13;1.13;;;10.40;99.90;;;;;;5072036;28;20461;-77
2023/11/19 07:25:53;;;;;;;6.25;3.42;;;10.40;99.90;;;;;;5080682;28;20036;-77
2023/11/19 07:28:19;;;;;;;7.45;4.97;;;10.40;99.90;;;;;;5079094;28;20385;-76
2023/11/19 07:30:46;;;;;;;2.40;1.77;;;10.30;99.90;;;;;;5081906;28;20021;-76
2023/11/19 07:33:13;;;;;;;0.40;0.40;;;10.30;99.90;;;;;;5067330;28;20039;-76
2023/11/19 07:35:42;;;;;;;0.10;0.10;;;10.30;99.90;;;;;;5083216;28;20016;-76
2023/11/19 07:38:08;;;;;;;0.20;0.20;;;10.40;99.90;;;;;;5083107;28;20028;-77
2023/11/19 07:40:34;;;;;;;0.65;0.65;;;10.40;99.90;;;;;;5078165;28;20032;-76
2023/11/19 07:43:00;;;;;;;2.50;2.15;;;10.40;99.90;;;;;;5078890;28;20028;-76
2023/11/19 07:45:27;;;;;;;1.38;1.27;;;10.50;99.90;;;;;;5085071;28;20047;-77
2023/11/19 07:47:54;;;;;;;0.70;0.70;;;10.50;99.90;;;;;;5084003;28;20449;-76
2023/11/19 07:50:20;;;;;;;0.73;0.73;;;10.40;99.90;;;;;;5070958;28;20040;-77
2023/11/19 07:52:47;;;;;;;0.38;0.38;;;10.50;99.90;;;;;;5076981;28;20033;-77
2023/11/19 07:55:13;;;;;;;0.35;0.35;;;10.50;99.90;;;;;;5064705;28;20049;-74
2023/11/19 07:57:39;;;;;;;0.28;0.28;;;10.60;99.90;;;;;;5043840;28;20026;-77
2023/11/19 08:00:07;;;;;;;0.50;0.50;;;10.60;99.90;;;;;;5031991;28;20044;-76
2023/11/19 08:02:39;;;;;;;0.90;0.88;;;10.70;99.90;;;;;;5052890;28;20047;-76
2023/11/19 08:05:05;;;;;;;0.65;0.30;;;10.70;99.90;;;;;;5045822;28;20033;-77
2023/11/19 08:07:32;;;;;;;0.30;0.30;;;10.70;99.90;;;;;;5028833;28;20070;-76
2023/11/19 08:09:59;;;;;;;0.63;0.52;;;10.80;99.90;;;;;;5043780;28;20482;-77
2023/11/19 08:12:26;;;;;;;1.63;1.52;;;10.90;99.90;;;;;;5043880;28;20032;-76
2023/11/19 08:14:52;;;;;;;0.60;0.60;;;11.00;99.90;;;;;;5041776;28;20053;-75
2023/11/19 08:17:19;;;;;;;0.20;0.20;;;11.10;99.90;;;;;;5048162;28;20045;-76
2023/11/19 08:19:45;;;;;;;0.30;0.20;;;11.10;99.90;;;;;;5043017;28;20025;-76
2023/11/19 08:22:11;;;;;;;0.60;0.60;;;11.20;99.90;;;;;;5052861;28;20045;-76
2023/11/19 08:24:37;;;;;;;1.17;1.00;;;11.20;99.90;;;;;;5056812;28;20072;-77
2023/11/19 08:27:04;;;;;;;0.10;0.10;;;11.30;99.90;;;;;;5047519;28;20464;-77
2023/11/19 08:29:30;;;;;;;0.20;0.20;;;11.40;99.90;;;;;;5047034;28;20033;-76
2023/11/19 08:31:57;;;;;;;0.10;0.10;;;11.50;99.90;;;;;;5040715;28;20036;-76
2023/11/19 08:34:23;;;;;;;1.10;0.85;;;11.50;99.90;;;;;;5021948;28;20045;-77
2023/11/19 08:36:55;;;;;;;0.30;0.30;;;11.50;99.90;;;;;;5033345;28;20025;-77
2023/11/19 08:39:22;;;;;;;0.15;0.15;;;11.50;99.90;;;;;;5035514;28;20041;-76
2023/11/19 08:41:48;;;;;;;0.22;0.13;;;11.60;99.90;;;;;;5048605;28;20029;-76
2023/11/19 08:44:14;;;;;;;0.10;0.10;;;11.60;99.90;;;;;;5039129;28;20034;-76
2023/11/19 08:46:50;;;;;;;0.30;0.30;;;11.60;99.90;;;;;;5038340;28;20025;-76
2023/11/19 08:49:16;;;;;;;0.13;0.13;;;11.50;99.90;;;;;;5030835;28;20033;-76
2023/11/19 08:51:42;;;;;;;0.17;0.17;;;11.50;99.90;;;;;;5041393;28;20041;-76
2023/11/19 08:54:08;;;;;;;0.30;0.30;;;11.60;99.90;;;;;;5027096;28;20044;-76
2023/11/19 08:56:35;;;;;;;0.85;0.45;;;11.80;99.90;;;;;;5043275;28;20048;-75
2023/11/19 08:59:02;;;;;;;1.45;1.00;;;11.90;99.90;;;;;;5040326;28;20036;-76
2023/11/19 09:01:28;;;;;;;0.85;0.75;;;12.00;99.90;;;;;;5040871;28;20036;-76
2023/11/19 09:03:55;;;;;;;1.65;1.17;;;11.90;99.90;;;;;;5043015;28;20049;-76
2023/11/19 09:06:21;;;;;;;0.77;0.32;;;11.90;99.90;;;;;;5038243;28;20025;-75
2023/11/19 09:08:47;;;;;;;0.75;0.50;;;11.90;99.90;;;;;;5047120;28;20036;-75
2023/11/19 09:11:14;;;;;;;0.52;0.52;;;12.00;99.90;;;;;;5047603;28;20088;-74
2023/11/19 09:13:40;;;;;;;0.10;0.10;;;12.20;99.90;;;;;;5040655;28;20040;-75
2023/11/19 09:16:07;;;;;;;1.73;0.35;;;12.30;99.90;;;;;;5037315;28;20051;-75
2023/11/19 09:18:33;;;;;;;0.50;0.43;;;12.40;99.90;;;;;;5043901;28;20040;-75
2023/11/19 09:20:59;;;;;;;0.28;0.25;;;12.40;99.90;;;;;;5051556;28;20036;-76
2023/11/19 09:23:27;;;;;;;1.38;0.85;;;12.40;99.90;;;;;;5062605;28;20036;-75
2023/11/19 09:25:53;;;;;;;1.52;1.27;;;12.60;99.90;;;;;;5046080;28;20043;-75
2023/11/19 09:28:20;;;;;;;0.10;0.10;;;12.70;99.90;;;;;;5047885;28;20134;-76
2023/11/19 09:30:46;;;;;;;0.20;0.20;;;13.00;99.90;;;;;;5055721;28;20032;-76
2023/11/19 09:33:13;;;;;;;0.85;0.63;;;13.00;99.90;;;;;;5054262;28;20048;-76
2023/11/19 09:35:40;;;;;;;1.23;0.40;;;12.90;99.90;;;;;;5070026;28;20037;-75
2023/11/19 09:38:07;;;;;;;0.10;0.10;;;12.90;99.90;;;;;;5061258;28;20033;-76
2023/11/19 09:40:34;;;;;;;0.10;0.10;;;12.90;99.90;;;;;;5051184;28;20033;-76
2023/11/19 09:43:01;;;;;;;0.10;0.10;;;12.90;99.90;;;;;;5050312;28;20044;-76
2023/11/19 09:45:32;;;;;;;0.25;0.25;;;12.90;99.90;;;;;;5049025;28;20037;-76
2023/11/19 09:48:00;;;;;;;0.10;0.10;;;13.00;99.90;;;;;;5045910;28;20525;-77
2023/11/19 09:50:28;;;;;;;0.20;0.20;;;13.00;99.90;;;;;;5048332;28;20388;-78
2023/11/19 09:52:55;;;;;;;0.10;0.10;;;12.90;99.90;;;;;;5047291;28;20045;-76
2023/11/19 09:55:21;;;;;;;0.20;0.20;;;12.90;99.90;;;;;;5035182;28;20052;-75
2023/11/19 09:57:50;;;;;;;0.10;0.10;;;12.80;99.90;;;;;;5065253;28;20037;-77
2023/11/19 10:00:19;;;;;;;0.20;0.20;;;12.90;99.90;;;;;;5047438;28;20037;-75
2023/11/19 10:02:46;;;;;;;0.28;0.28;;;12.90;84.30;;;;;;5051687;28;20036;-76
2023/11/19 10:05:13;;;;;;;0.30;0.30;;;12.90;99.90;;;;;;5063735;28;20033;-77
2023/11/19 10:07:39;;;;;;;0.30;0.30;;;12.90;75.70;;;;;;5046972;28;20028;-76
2023/11/19 10:10:07;;;;;;;0.32;0.32;;;13.00;99.90;;;;;;5065551;28;20037;-77
2023/11/19 10:12:33;;;;;;;0.57;0.57;;;12.90;99.90;;;;;;5053138;28;20025;-76
2023/11/19 10:15:00;;;;;;;0.17;0.17;;;12.90;98.60;;;;;;5069693;28;20036;-75
2023/11/19 10:17:32;;;;;;;0.38;0.38;;;12.90;99.90;;;;;;5061134;28;20040;-75
2023/11/19 10:19:59;;;;;;;0.10;0.10;;;12.80;99.90;;;;;;5060629;28;20032;-76
2023/11/19 10:22:27;;;;;;;0.32;0.20;;;12.80;99.90;;;;;;5064495;28;20045;-76
2023/11/19 10:24:54;;;;;;;11.30;0.57;;;13.00;99.90;;;;;;5055636;28;20032;-76
2023/11/19 10:27:20;;;;;;;2.05;0.85;;;13.00;99.90;;;;;;5052385;28;20032;-76
2023/11/19 10:29:47;;;;;;;0.30;0.30;;;13.10;99.90;;;;;;5067282;28;20477;-76
2023/11/19 10:32:17;;;;;;;5.57;0.73;;;13.20;80.10;;;;;;5067838;28;20029;-76
2023/11/19 10:34:43;;;;;;;0.10;0.10;;;13.30;53.80;;;;;;5053887;28;20036;-76
2023/11/19 10:37:28;;;;;;;0.80;0.50;;;13.30;57.90;;;;;;5047596;28;20088;-74
2023/11/19 10:39:55;;;;;;;0.75;0.43;;;13.40;60.50;;;;;;5064442;28;20040;-74
2023/11/19 10:42:21;;;;;;;0.20;0.20;;;13.60;6.40;;;;;;5053187;28;20039;-73
2023/11/19 10:44:48;;;;;;;0.40;0.30;;;13.70;1.00;;;;;;5051130;28;20059;-73
2023/11/19 10:47:17;;;;;;;1.95;0.90;;;13.70;1.00;;;;;;5065016;28;20039;-73
2023/11/19 10:49:43;;;;;;;0.47;0.47;;;13.80;1.00;;;;;;5062989;28;20048;-73
2023/11/19 10:52:10;;;;;;;0.47;0.40;;;13.90;1.00;;;;;;5060895;28;20037;-76
2023/11/19 10:54:41;;;;;;;0.68;0.57;;;14.10;1.00;;;;;;5071392;28;20118;-73
2023/11/19 10:57:11;;;;;;;1.30;0.40;;;14.10;1.00;;;;;;5068991;28;20044;-75
2023/11/19 10:59:38;;;;;;;0.30;0.30;;;14.10;1.00;;;;;;5067676;28;20374;-74
2023/11/19 11:02:09;;;;;;;0.45;0.45;;;14.20;1.00;;;;;;5054106;28;20033;-77
2023/11/19 11:04:40;;;;;;;0.15;0.15;;;14.10;1.00;;;;;;5061855;28;20040;-74
2023/11/19 11:07:08;;;;;;;0.20;0.15;;;14.10;1.00;;;;;;5066128;28;20035;-74
2023/11/19 11:09:35;;;;;;;0.50;0.47;;;14.00;1.00;;;;;;5051782;28;20381;-74
2023/11/19 11:12:03;;;;;;;0.32;0.32;;;14.00;1.00;;;;;;5065014;28;20030;-74
2023/11/19 11:14:32;;;;;;;0.10;0.10;;;14.00;1.00;;;;;;5064193;28;20454;-74
2023/11/19 11:16:59;;;;;;;0.25;0.25;;;14.00;1.00;;;;;;5066618;28;20482;-74
2023/11/19 11:19:25;;;;;;;1.85;0.50;;;14.00;1.00;;;;;;5064339;28;20148;-74
2023/11/19 11:21:54;;;;;;;0.20;0.13;;;13.80;1.00;;;;;;5065652;28;20076;-74
2023/11/19 11:24:52;;;;;;;0.20;0.20;;;13.90;1.00;;;;;;5064222;28;20044;-75
2023/11/19 11:27:40;;;;;;;0.10;0.10;;;13.80;1.00;;;;;;5065979;28;20036;-75
2023/11/19 11:30:16;;;;;;;0.63;0.63;;;13.90;1.00;;;;;;5066176;28;20547;-75
2023/11/19 11:32:49;;;;;;;0.63;0.63;;;13.90;1.00;;;;;;5066590;28;20027;-75
2023/11/19 11:35:34;;;;;;;0.10;0.10;;;13.80;1.00;;;;;;5065554;28;20024;-73
2023/11/19 11:38:07;;;;;;;0.65;0.35;;;13.90;1.00;;;;;;5063783;28;20374;-74
2023/11/19 11:40:33;;;;;;;0.10;0.10;;;13.90;1.00;;;;;;5061330;28;20029;-73
2023/11/19 11:43:00;;;;;;;0.28;0.28;;;14.00;1.00;;;;;;5061442;28;20366;-74
2023/11/19 11:45:42;;;;;;;0.10;0.10;;;14.00;1.00;;;;;;5069648;28;20038;-75
2023/11/19 11:48:15;;;;;;;0.63;0.63;;;14.00;1.00;;;;;;5047964;28;20021;-77
2023/11/19 11:50:50;;;;;;;0.75;0.57;;;14.10;1.00;;;;;;5049159;28;20036;-76
2023/11/19 11:53:17;;;;;;;0.10;0.10;;;14.20;99.90;;;;;;5046753;28;20029;-76
2023/11/19 11:55:49;;;;;;;0.10;0.10;;;14.30;99.90;;;;;;5064054;28;20458;-80
2023/11/19 11:58:20;;;;;;;0.10;0.10;;;14.40;99.90;;;;;;5062918;28;20028;-76
2023/11/19 12:00:48;;;;;;;0.05;0.05;;;14.50;99.90;;;;;;5064192;28;20032;-79
2023/11/19 12:03:15;;;;;;;0.63;0.40;;;14.40;99.90;;;;;;5058438;28;20100;-77
2023/11/19 12:05:42;;;;;;;0.20;0.20;;;14.60;99.90;;;;;;5061359;28;20036;-77
2023/11/19 12:08:11;;;;;;;0.10;0.10;;;14.60;99.90;;;;;;5063036;28;20032;-76
2023/11/19 12:10:47;;;;;;;0.20;0.20;;;14.60;99.90;;;;;;5060948;28;20047;-76
2023/11/19 12:13:14;;;;;;;0.10;0.10;;;14.70;99.90;;;;;;5045017;28;20100;-77
2023/11/19 12:16:00;;;;;;;0.50;0.25;;;14.80;99.90;;;;;;5063400;28;20029;-77
2023/11/19 12:18:28;;;;;;;0.00;0.00;;;14.80;99.90;;;;;;5049580;28;20041;-78
2023/11/19 12:20:56;;;;;;;0.20;0.20;;;14.70;99.90;;;;;;5061261;28;20020;-77
2023/11/19 12:23:25;;;;;;;0.03;0.03;;;14.80;99.90;;;;;;5064554;28;20029;-78
2023/11/19 12:25:51;;;;;;;0.10;0.10;;;14.90;41.40;;;;;;5063147;28;20029;-76
2023/11/19 12:28:18;;;;;;;0.35;0.35;;;14.90;1.00;;;;;;5044972;28;20045;-77
2023/11/19 12:30:45;;;;;;;0.10;0.10;;;14.90;13.50;;;;;;5050088;28;20033;-76
2023/11/19 12:33:12;;;;;;;7.43;0.65;;;14.80;28.00;;;;;;5058053;28;20029;-76
2023/11/19 12:35:43;;;;;;;0.00;0.00;;;14.80;98.70;;;;;;5066067;28;20033;-76
2023/11/19 12:38:23;;;;;;;0.95;0.95;;;14.70;99.90;;;;;;5044753;28;20040;-76
2023/11/19 12:41:04;;;;;;;0.30;0.20;;;14.60;99.90;;;;;;5060067;28;20032;-77
2023/11/19 12:43:30;;;;;;;0.00;0.00;;;14.60;99.90;;;;;;5058321;28;20024;-76
2023/11/19 12:45:57;;;;;;;0.30;0.30;;;14.60;99.90;;;;;;5064716;28;20037;-76
2023/11/19 12:48:23;;;;;;;0.10;0.10;;;14.60;99.90;;;;;;5061802;28;20024;-77
2023/11/19 12:50:55;;;;;;;7.13;0.47;;;14.60;88.40;;;;;;5062632;28;20036;-76
2023/11/19 12:53:23;;;;;;;3.30;0.98;;;14.60;91.80;;;;;;5058441;28;20462;-76
2023/11/19 12:55:50;;;;;;;0.30;0.25;;;14.50;99.90;;;;;;5062028;28;20036;-77